createdAt,value
2022-09-22T00:00:28.392Z,0.00
2022-09-22T00:01:28.449Z,0.00
2022-09-22T00:02:28.447Z,0.00
2022-09-22T00:03:28.371Z,0.00
2022-09-22T00:04:28.362Z,0.00
2022-09-22T00:05:28.367Z,0.00
2022-09-22T00:06:28.374Z,0.00
2022-09-22T00:07:28.339Z,0.00
2022-09-22T00:08:28.333Z,0.00
2022-09-22T00:09:28.324Z,0.00
2022-09-22T00:10:28.320Z,0.00
2022-09-22T00:11:28.338Z,0.00
2022-09-22T00:12:28.301Z,0.00
2022-09-22T00:13:28.299Z,0.00
2022-09-22T00:14:28.286Z,0.00
2022-09-22T00:15:28.278Z,0.00
2022-09-22T00:16:28.434Z,0.00
2022-09-22T00:17:28.267Z,0.00
2022-09-22T00:18:28.259Z,0.00
2022-09-22T00:19:28.256Z,0.00
2022-09-22T00:20:28.241Z,0.00
2022-09-22T00:21:28.247Z,0.00
2022-09-22T00:22:28.258Z,0.00
2022-09-22T00:23:28.220Z,0.00
2022-09-22T00:24:28.212Z,0.00
2022-09-22T00:25:28.207Z,0.00
2022-09-22T00:26:28.195Z,0.00
2022-09-22T00:27:28.218Z,0.00
2022-09-22T00:28:28.181Z,0.00
2022-09-22T00:29:28.171Z,0.00
2022-09-22T00:30:28.169Z,0.00
2022-09-22T00:31:28.210Z,0.00
2022-09-22T00:32:28.177Z,0.00
2022-09-22T00:33:28.138Z,0.00
2022-09-22T00:34:28.138Z,0.00
2022-09-22T00:35:28.133Z,0.00
2022-09-22T00:36:28.116Z,0.00
2022-09-22T00:37:28.135Z,0.00
2022-09-22T00:38:28.105Z,0.00
2022-09-22T00:39:28.097Z,0.00
2022-09-22T00:40:28.146Z,0.00
2022-09-22T00:41:28.078Z,0.00
2022-09-22T00:42:28.101Z,0.00
2022-09-22T00:43:28.067Z,0.00
2022-09-22T00:44:28.055Z,0.00
2022-09-22T00:45:28.055Z,0.00
2022-09-22T00:46:28.145Z,0.00
2022-09-22T00:47:28.056Z,0.00
2022-09-22T00:48:28.031Z,0.00
2022-09-22T00:49:28.016Z,0.00
2022-09-22T00:50:28.018Z,0.00
2022-09-22T00:51:27.999Z,0.00
2022-09-22T00:52:28.011Z,0.00
2022-09-22T00:53:27.985Z,0.00
2022-09-22T00:54:27.977Z,0.00
2022-09-22T00:55:27.967Z,0.00
2022-09-22T00:56:27.970Z,0.00
2022-09-22T00:57:28.000Z,0.00
2022-09-22T00:58:27.952Z,0.00
2022-09-22T00:59:27.939Z,0.00
2022-09-22T01:00:27.966Z,0.00
2022-09-22T01:01:27.978Z,0.00
2022-09-22T01:02:27.947Z,0.00
2022-09-22T01:03:29.849Z,0.00
2022-09-22T01:04:28.901Z,0.00
2022-09-22T01:05:27.894Z,0.00
2022-09-22T01:06:27.888Z,0.00
2022-09-22T01:07:27.905Z,0.00
2022-09-22T01:08:27.876Z,0.00
2022-09-22T01:09:27.860Z,0.00
2022-09-22T01:10:27.855Z,0.00
2022-09-22T01:11:27.852Z,0.00
2022-09-22T01:12:27.869Z,0.00
2022-09-22T01:13:27.833Z,0.00
2022-09-22T01:14:27.830Z,0.00
2022-09-22T01:15:27.822Z,0.00
2022-09-22T01:16:27.866Z,0.00
2022-09-22T01:17:27.827Z,0.00
2022-09-22T01:18:27.804Z,0.00
2022-09-22T01:19:27.789Z,0.00
2022-09-22T01:20:27.778Z,0.00
2022-09-22T01:21:27.773Z,0.00
2022-09-22T01:22:27.789Z,0.00
2022-09-22T01:23:28.764Z,0.00
2022-09-22T01:24:27.756Z,0.00
2022-09-22T01:25:27.749Z,0.00
2022-09-22T01:26:27.731Z,0.00
2022-09-22T01:27:27.775Z,0.00
2022-09-22T01:28:27.725Z,0.00
2022-09-22T01:29:27.713Z,0.00
2022-09-22T01:30:27.708Z,0.00
2022-09-22T01:31:27.740Z,0.00
2022-09-22T01:32:27.733Z,0.00
2022-09-22T01:33:27.690Z,0.00
2022-09-22T01:34:27.681Z,0.00
2022-09-22T01:35:27.668Z,0.00
2022-09-22T01:36:27.660Z,0.00
2022-09-22T01:37:27.677Z,0.00
2022-09-22T01:38:27.644Z,0.00
2022-09-22T01:39:27.646Z,0.00
2022-09-22T01:40:27.736Z,0.00
2022-09-22T01:41:27.623Z,0.00
2022-09-22T01:42:27.645Z,0.00
2022-09-22T01:43:27.614Z,0.00
2022-09-22T01:44:27.621Z,0.00
2022-09-22T01:45:27.592Z,0.00
2022-09-22T01:46:27.626Z,0.00
2022-09-22T01:47:27.603Z,0.00
2022-09-22T01:48:27.571Z,0.00
2022-09-22T01:49:27.565Z,0.00
2022-09-22T01:50:27.564Z,0.00
2022-09-22T01:51:27.548Z,0.00
2022-09-22T01:52:27.573Z,0.00
2022-09-22T01:53:27.530Z,0.00
2022-09-22T01:54:27.532Z,0.00
2022-09-22T01:55:27.520Z,0.00
2022-09-22T01:56:27.503Z,0.00
2022-09-22T01:57:27.533Z,0.00
2022-09-22T01:58:27.497Z,0.00
2022-09-22T01:59:27.495Z,0.00
2022-09-22T02:00:27.482Z,0.00
2022-09-22T02:01:27.537Z,0.00
2022-09-22T02:02:27.523Z,0.00
2022-09-22T02:03:27.483Z,0.00
2022-09-22T02:04:27.450Z,0.00
2022-09-22T02:05:27.443Z,0.00
2022-09-22T02:06:27.435Z,0.00
2022-09-22T02:07:27.430Z,0.00
2022-09-22T02:08:27.451Z,0.00
2022-09-22T02:09:27.416Z,0.00
2022-09-22T02:10:27.409Z,0.00
2022-09-22T02:11:27.405Z,0.00
2022-09-22T02:12:27.396Z,0.00
2022-09-22T02:13:27.427Z,0.00
2022-09-22T02:14:27.386Z,0.00
2022-09-22T02:15:27.374Z,0.00
2022-09-22T02:16:27.362Z,0.00
2022-09-22T02:17:29.680Z,0.00
2022-09-22T02:18:28.408Z,0.00
2022-09-22T02:19:27.368Z,0.00
2022-09-22T02:20:27.364Z,0.00
2022-09-22T02:21:27.391Z,0.00
2022-09-22T02:22:27.375Z,0.00
2022-09-22T02:23:27.356Z,0.00
2022-09-22T02:24:27.315Z,0.00
2022-09-22T02:25:27.299Z,0.00
2022-09-22T02:26:27.296Z,0.00
2022-09-22T02:27:27.278Z,0.00
2022-09-22T02:28:27.307Z,0.00
2022-09-22T02:29:27.265Z,0.00
2022-09-22T02:30:27.263Z,0.00
2022-09-22T02:31:27.322Z,0.00
2022-09-22T02:32:27.244Z,0.00
2022-09-22T02:33:27.267Z,0.00
2022-09-22T02:34:27.236Z,0.00
2022-09-22T02:35:27.228Z,0.00
2022-09-22T02:36:27.217Z,0.00
2022-09-22T02:37:27.212Z,0.00
2022-09-22T02:38:27.229Z,0.00
2022-09-22T02:39:27.197Z,0.00
2022-09-22T02:40:27.235Z,0.00
2022-09-22T02:41:27.176Z,0.00
2022-09-22T02:42:27.172Z,0.00
2022-09-22T02:43:27.185Z,0.00
2022-09-22T02:44:27.155Z,0.00
2022-09-22T02:45:27.150Z,0.00
2022-09-22T02:46:27.226Z,0.00
2022-09-22T02:47:27.131Z,0.00
2022-09-22T02:48:27.156Z,0.00
2022-09-22T02:49:27.121Z,0.00
2022-09-22T02:50:27.115Z,0.00
2022-09-22T02:51:27.105Z,0.00
2022-09-22T02:52:27.091Z,0.00
2022-09-22T02:53:27.114Z,0.00
2022-09-22T02:54:27.086Z,0.00
2022-09-22T02:55:27.067Z,0.00
2022-09-22T02:56:27.060Z,0.00
2022-09-22T02:57:27.052Z,0.00
2022-09-22T02:58:27.071Z,0.00
2022-09-22T02:59:27.039Z,0.00
2022-09-22T03:00:27.030Z,0.00
2022-09-22T03:01:27.085Z,0.00
2022-09-22T03:02:27.017Z,0.00
2022-09-22T03:03:27.031Z,0.00
2022-09-22T03:04:27.047Z,0.00
2022-09-22T03:05:26.992Z,0.00
2022-09-22T03:06:26.983Z,0.00
2022-09-22T03:07:26.981Z,0.00
2022-09-22T03:08:26.999Z,0.00
2022-09-22T03:09:26.962Z,0.00
2022-09-22T03:10:26.961Z,0.00
2022-09-22T03:11:26.954Z,0.00
2022-09-22T03:12:26.943Z,0.00
2022-09-22T03:13:27.033Z,0.00
2022-09-22T03:14:26.933Z,0.00
2022-09-22T03:15:27.338Z,0.00
2022-09-22T03:16:27.909Z,0.00
2022-09-22T03:17:26.900Z,0.00
2022-09-22T03:18:26.919Z,0.00
2022-09-22T03:19:26.886Z,0.00
2022-09-22T03:20:26.881Z,0.00
2022-09-22T03:21:26.881Z,0.00
2022-09-22T03:22:26.865Z,0.00
2022-09-22T03:23:26.880Z,0.00
2022-09-22T03:24:26.850Z,0.00
2022-09-22T03:25:26.846Z,0.00
2022-09-22T03:26:26.843Z,0.00
2022-09-22T03:27:26.833Z,0.00
2022-09-22T03:28:26.863Z,0.00
2022-09-22T03:29:26.819Z,0.00
2022-09-22T03:30:26.805Z,0.00
2022-09-22T03:31:26.807Z,0.00
2022-09-22T03:32:26.793Z,0.00
2022-09-22T03:33:26.806Z,0.00
2022-09-22T03:34:26.780Z,0.00
2022-09-22T03:35:26.769Z,0.00
2022-09-22T03:36:26.762Z,0.00
2022-09-22T03:37:26.756Z,0.00
2022-09-22T03:38:26.773Z,0.00
2022-09-22T03:39:26.746Z,0.00
2022-09-22T03:40:26.784Z,0.00
2022-09-22T03:41:26.732Z,0.00
2022-09-22T03:42:26.717Z,0.00
2022-09-22T03:43:26.740Z,0.00
2022-09-22T03:44:26.701Z,0.00
2022-09-22T03:46:01.019Z,0.00
2022-09-22T03:46:26.726Z,0.00
2022-09-22T03:47:26.683Z,0.00
2022-09-22T03:48:26.703Z,0.00
2022-09-22T03:49:26.751Z,0.00
2022-09-22T03:50:26.660Z,0.00
2022-09-22T03:51:26.658Z,0.00
2022-09-22T03:52:26.653Z,0.00
2022-09-22T03:53:26.680Z,0.00
2022-09-22T03:54:27.631Z,0.00
2022-09-22T03:55:26.630Z,0.00
2022-09-22T03:56:26.611Z,0.00
2022-09-22T03:57:26.602Z,0.00
2022-09-22T03:58:26.605Z,0.00
2022-09-22T03:59:26.614Z,0.00
2022-09-22T04:00:27.586Z,0.00
2022-09-22T04:01:26.646Z,0.00
2022-09-22T04:02:26.619Z,0.00
2022-09-22T04:03:26.595Z,0.00
2022-09-22T04:04:26.558Z,0.00
2022-09-22T04:05:26.545Z,0.00
2022-09-22T04:06:26.549Z,0.00
2022-09-22T04:07:26.534Z,0.00
2022-09-22T04:08:26.532Z,0.00
2022-09-22T04:09:26.550Z,0.00
2022-09-22T04:10:26.516Z,0.00
2022-09-22T04:11:26.503Z,0.00
2022-09-22T04:12:26.499Z,0.00
2022-09-22T04:13:26.490Z,0.00
2022-09-22T04:14:26.504Z,0.00
2022-09-22T04:15:26.486Z,0.00
2022-09-22T04:16:26.526Z,0.00
2022-09-22T04:17:26.464Z,0.00
2022-09-22T04:18:26.467Z,0.00
2022-09-22T04:19:26.489Z,0.00
2022-09-22T04:20:26.437Z,0.00
2022-09-22T04:21:26.471Z,0.00
2022-09-22T04:22:26.424Z,0.00
2022-09-22T04:23:26.430Z,0.00
2022-09-22T04:24:26.443Z,0.00
2022-09-22T04:25:26.408Z,0.00
2022-09-22T04:26:26.400Z,0.00
2022-09-22T04:27:26.389Z,0.00
2022-09-22T04:28:26.405Z,0.00
2022-09-22T04:29:26.406Z,0.00
2022-09-22T04:30:26.413Z,0.00
2022-09-22T04:31:26.363Z,0.00
2022-09-22T04:32:26.367Z,0.00
2022-09-22T04:33:26.343Z,0.00
2022-09-22T04:34:26.364Z,0.00
2022-09-22T04:35:26.331Z,0.00
2022-09-22T04:36:26.322Z,0.00
2022-09-22T04:37:26.317Z,0.00
2022-09-22T04:38:26.307Z,0.00
2022-09-22T04:39:26.334Z,0.00
2022-09-22T04:40:26.339Z,0.00
2022-09-22T04:41:26.291Z,0.00
2022-09-22T04:42:26.280Z,0.00
2022-09-22T04:43:26.267Z,0.00
2022-09-22T04:44:26.284Z,0.00
2022-09-22T04:45:26.255Z,4.00
2022-09-22T04:46:26.363Z,0.00
2022-09-22T04:47:26.256Z,0.00
2022-09-22T04:48:26.233Z,4.00
2022-09-22T04:49:26.243Z,0.00
2022-09-22T04:50:26.216Z,4.00
2022-09-22T04:51:26.213Z,4.00
2022-09-22T04:52:26.209Z,4.00
2022-09-22T04:53:26.200Z,4.00
2022-09-22T04:54:26.227Z,4.00
2022-09-22T04:55:26.182Z,4.00
2022-09-22T04:56:26.180Z,8.00
2022-09-22T04:57:26.162Z,8.00
2022-09-22T04:58:26.159Z,8.00
2022-09-22T04:59:26.189Z,12.00
2022-09-22T05:00:26.162Z,12.00
2022-09-22T05:01:26.191Z,12.00
2022-09-22T05:02:26.134Z,12.00
2022-09-22T05:03:26.165Z,16.00
2022-09-22T05:04:26.151Z,16.00
2022-09-22T05:05:26.118Z,16.00
2022-09-22T05:06:26.102Z,20.00
2022-09-22T05:07:26.103Z,24.00
2022-09-22T05:08:26.089Z,20.00
2022-09-22T05:09:26.085Z,24.00
2022-09-22T05:10:26.102Z,28.00
2022-09-22T05:11:26.065Z,28.00
2022-09-22T05:12:26.088Z,32.00
2022-09-22T05:13:26.050Z,36.00
2022-09-22T05:14:26.606Z,36.00
2022-09-22T05:15:27.064Z,40.00
2022-09-22T05:16:26.150Z,40.00
2022-09-22T05:17:26.055Z,44.00
2022-09-22T05:18:26.015Z,48.00
2022-09-22T05:19:26.004Z,52.00
2022-09-22T05:20:26.030Z,56.00
2022-09-22T05:21:25.994Z,60.00
2022-09-22T05:22:25.992Z,64.00
2022-09-22T05:23:25.979Z,68.00
2022-09-22T05:24:25.969Z,72.00
2022-09-22T05:25:25.985Z,72.00
2022-09-22T05:26:25.954Z,76.00
2022-09-22T05:27:25.959Z,80.00
2022-09-22T05:28:25.947Z,84.00
2022-09-22T05:29:28.021Z,88.00
2022-09-22T05:30:26.931Z,96.00
2022-09-22T05:31:25.963Z,96.00
2022-09-22T05:32:25.913Z,104.00
2022-09-22T05:33:25.910Z,108.00
2022-09-22T05:34:25.982Z,112.00
2022-09-22T05:35:25.934Z,120.00
2022-09-22T05:36:25.990Z,124.00
2022-09-22T05:37:25.887Z,132.00
2022-09-22T05:38:25.870Z,136.00
2022-09-22T05:39:25.871Z,140.00
2022-09-22T05:40:25.918Z,148.00
2022-09-22T05:41:25.850Z,152.00
2022-09-22T05:42:25.837Z,156.00
2022-09-22T05:43:25.831Z,164.00
2022-09-22T05:44:25.828Z,172.00
2022-09-22T05:45:25.904Z,180.00
2022-09-22T05:46:25.815Z,180.00
2022-09-22T05:47:25.803Z,188.00
2022-09-22T05:48:30.337Z,200.00
2022-09-22T05:49:27.789Z,208.00
2022-09-22T05:50:25.805Z,216.00
2022-09-22T05:51:25.779Z,220.00
2022-09-22T05:52:25.772Z,224.00
2022-09-22T05:53:25.762Z,232.00
2022-09-22T05:54:25.755Z,236.00
2022-09-22T05:55:25.770Z,244.00
2022-09-22T05:56:25.741Z,256.00
2022-09-22T05:57:25.750Z,264.00
2022-09-22T05:58:25.723Z,272.00
2022-09-22T05:59:25.719Z,284.00
2022-09-22T06:00:25.737Z,288.00
2022-09-22T06:01:25.791Z,292.00
2022-09-22T06:02:26.731Z,296.00
2022-09-22T06:03:26.692Z,300.00
2022-09-22T06:04:25.682Z,308.00
2022-09-22T06:05:25.721Z,320.00
2022-09-22T06:06:25.661Z,324.00
2022-09-22T06:07:25.656Z,332.00
2022-09-22T06:08:25.703Z,344.00
2022-09-22T06:09:25.651Z,348.00
2022-09-22T06:10:25.655Z,356.00
2022-09-22T06:11:25.632Z,364.00
2022-09-22T06:12:25.615Z,368.00
2022-09-22T06:13:25.633Z,372.00
2022-09-22T06:14:25.605Z,380.00
2022-09-22T06:15:25.632Z,388.00
2022-09-22T06:16:25.632Z,400.00
2022-09-22T06:17:25.593Z,404.00
2022-09-22T06:18:25.587Z,408.00
2022-09-22T06:19:25.586Z,408.00
2022-09-22T06:20:25.586Z,416.00
2022-09-22T06:21:25.544Z,424.00
2022-09-22T06:22:25.555Z,436.00
2022-09-22T06:23:25.535Z,452.00
2022-09-22T06:24:25.528Z,476.00
2022-09-22T06:25:25.567Z,484.00
2022-09-22T06:26:25.509Z,492.00
2022-09-22T06:27:25.516Z,512.00
2022-09-22T06:28:25.506Z,516.00
2022-09-22T06:29:25.508Z,532.00
2022-09-22T06:30:25.568Z,548.00
2022-09-22T06:31:25.565Z,560.00
2022-09-22T06:32:25.464Z,576.00
2022-09-22T06:33:25.459Z,584.00
2022-09-22T06:34:25.444Z,612.00
2022-09-22T06:35:25.473Z,648.00
2022-09-22T06:36:25.508Z,692.00
2022-09-22T06:37:25.432Z,736.00
2022-09-22T06:38:25.418Z,780.00
2022-09-22T06:39:25.412Z,796.00
2022-09-22T06:40:25.545Z,788.00
2022-09-22T06:41:25.396Z,788.00
2022-09-22T06:42:25.394Z,792.00
2022-09-22T06:43:25.377Z,784.00
2022-09-22T06:44:25.366Z,776.00
2022-09-22T06:45:25.441Z,776.00
2022-09-22T06:46:25.364Z,772.00
2022-09-22T06:47:25.350Z,768.00
2022-09-22T06:48:25.348Z,756.00
2022-09-22T06:49:25.338Z,760.00
2022-09-22T06:50:27.808Z,768.00
2022-09-22T06:51:25.314Z,752.00
2022-09-22T06:52:25.311Z,748.00
2022-09-22T06:53:27.530Z,748.00
2022-09-22T06:54:26.989Z,764.00
2022-09-22T06:55:25.311Z,784.00
2022-09-22T06:56:25.278Z,808.00
2022-09-22T06:57:25.283Z,856.00
2022-09-22T06:58:25.271Z,936.00
2022-09-22T06:59:25.275Z,988.00
2022-09-22T07:00:25.312Z,1088.00
2022-09-22T07:01:25.318Z,1168.00
2022-09-22T07:02:25.308Z,1296.00
2022-09-22T07:03:25.237Z,1344.00
2022-09-22T07:04:25.236Z,1300.00
2022-09-22T07:05:25.243Z,1216.00
2022-09-22T07:06:25.205Z,1160.00
2022-09-22T07:07:25.208Z,1124.00
2022-09-22T07:08:25.190Z,1088.00
2022-09-22T07:09:25.188Z,1096.00
2022-09-22T07:10:25.220Z,1180.00
2022-09-22T07:11:25.158Z,1256.00
2022-09-22T07:12:26.157Z,1372.00
2022-09-22T07:13:25.151Z,1416.00
2022-09-22T07:14:25.148Z,1452.00
2022-09-22T07:15:25.198Z,1448.00
2022-09-22T07:16:25.183Z,1480.00
2022-09-22T07:17:25.137Z,1496.00
2022-09-22T07:18:25.132Z,1492.00
2022-09-22T07:19:25.111Z,1384.00
2022-09-22T07:20:25.170Z,1408.00
2022-09-22T07:21:25.116Z,1492.00
2022-09-22T07:22:25.100Z,1608.00
2022-09-22T07:23:25.094Z,1736.00
2022-09-22T07:24:25.077Z,1776.00
2022-09-22T07:25:25.066Z,1728.00
2022-09-22T07:26:25.098Z,1744.00
2022-09-22T07:27:25.057Z,1816.00
2022-09-22T07:28:25.047Z,1780.00
2022-09-22T07:29:25.065Z,1756.00
2022-09-22T07:30:25.043Z,1744.00
2022-09-22T07:31:28.617Z,1828.00
2022-09-22T07:32:26.030Z,1884.00
2022-09-22T07:33:25.014Z,1904.00
2022-09-22T07:34:24.997Z,1940.00
2022-09-22T07:35:24.997Z,1932.00
2022-09-22T07:36:25.007Z,1888.00
2022-09-22T07:37:24.979Z,1912.00
2022-09-22T07:38:24.978Z,1996.00
2022-09-22T07:39:24.978Z,2092.00
2022-09-22T07:40:24.985Z,2136.00
2022-09-22T07:41:24.982Z,2156.00
2022-09-22T07:42:24.947Z,2188.00
2022-09-22T07:43:24.931Z,2200.00
2022-09-22T07:44:24.921Z,2216.00
2022-09-22T07:45:24.917Z,2204.00
2022-09-22T07:46:25.030Z,2160.00
2022-09-22T07:47:24.954Z,2164.00
2022-09-22T07:48:24.891Z,2172.00
2022-09-22T07:49:24.910Z,2176.00
2022-09-22T07:50:24.879Z,2108.00
2022-09-22T07:51:24.898Z,2112.00
2022-09-22T07:52:24.858Z,2120.00
2022-09-22T07:53:24.862Z,2156.00
2022-09-22T07:54:24.857Z,2104.00
2022-09-22T07:55:24.846Z,2040.00
2022-09-22T07:56:24.880Z,1940.00
2022-09-22T07:57:24.825Z,1904.00
2022-09-22T07:58:24.926Z,1880.00
2022-09-22T07:59:24.819Z,1820.00
2022-09-22T08:00:24.829Z,1804.00
2022-09-22T08:01:24.839Z,1760.00
2022-09-22T08:02:24.844Z,1736.00
2022-09-22T08:03:24.776Z,1732.00
2022-09-22T08:04:24.775Z,1740.00
2022-09-22T08:05:24.775Z,1704.00
2022-09-22T08:06:24.877Z,1712.00
2022-09-22T08:07:24.751Z,1720.00
2022-09-22T08:08:24.741Z,1732.00
2022-09-22T08:09:24.769Z,1792.00
2022-09-22T08:10:24.728Z,1784.00
2022-09-22T08:11:24.738Z,1764.00
2022-09-22T08:12:24.707Z,1744.00
2022-09-22T08:13:24.705Z,1840.00
2022-09-22T08:14:24.687Z,1944.00
2022-09-22T08:15:27.148Z,1972.00
2022-09-22T08:16:25.731Z,1988.00
2022-09-22T08:17:24.674Z,2000.00
2022-09-22T08:18:24.664Z,1988.00
2022-09-22T08:19:24.660Z,1984.00
2022-09-22T08:20:24.647Z,1988.00
2022-09-22T08:21:24.676Z,1968.00
2022-09-22T08:22:24.625Z,1920.00
2022-09-22T08:23:24.626Z,1876.00
2022-09-22T08:24:24.622Z,1872.00
2022-09-22T08:25:24.613Z,1936.00
2022-09-22T08:26:24.603Z,2180.00
2022-09-22T08:27:24.639Z,2080.00
2022-09-22T08:28:24.587Z,1964.00
2022-09-22T08:29:24.638Z,2096.00
2022-09-22T08:30:24.573Z,2252.00
2022-09-22T08:31:24.624Z,2744.00
2022-09-22T08:32:24.577Z,2672.00
2022-09-22T08:33:24.557Z,3164.00
2022-09-22T08:34:24.536Z,3136.00
2022-09-22T08:35:24.528Z,2624.00
2022-09-22T08:36:24.537Z,2668.00
2022-09-22T08:37:24.536Z,2644.00
2022-09-22T08:38:24.499Z,2432.00
2022-09-22T08:39:24.506Z,2520.00
2022-09-22T08:40:24.539Z,2436.00
2022-09-22T08:41:24.482Z,2500.00
2022-09-22T08:42:24.507Z,2604.00
2022-09-22T08:43:24.468Z,2628.00
2022-09-22T08:44:24.465Z,2628.00
2022-09-22T08:45:26.971Z,2600.00
2022-09-22T08:46:25.486Z,2544.00
2022-09-22T08:47:24.460Z,2544.00
2022-09-22T08:48:24.433Z,2504.00
2022-09-22T08:49:24.436Z,2460.00
2022-09-22T08:50:24.420Z,2420.00
2022-09-22T08:51:24.411Z,2388.00
2022-09-22T08:52:24.433Z,2336.00
2022-09-22T08:53:24.400Z,2304.00
2022-09-22T08:54:24.378Z,2292.00
2022-09-22T08:55:24.376Z,2272.00
2022-09-22T08:56:24.365Z,2260.00
2022-09-22T08:57:24.385Z,2256.00
2022-09-22T08:58:24.350Z,2252.00
2022-09-22T08:59:24.341Z,2248.00
2022-09-22T09:00:24.363Z,2244.00
2022-09-22T09:01:24.407Z,2244.00
2022-09-22T09:02:24.349Z,2248.00
2022-09-22T09:03:24.317Z,2244.00
2022-09-22T09:04:24.300Z,2248.00
2022-09-22T09:05:24.289Z,2244.00
2022-09-22T09:06:24.286Z,2240.00
2022-09-22T09:07:24.317Z,2236.00
2022-09-22T09:08:24.272Z,2240.00
2022-09-22T09:09:24.260Z,2240.00
2022-09-22T09:10:24.252Z,2240.00
2022-09-22T09:12:25.263Z,2240.00
2022-09-22T09:13:24.236Z,2236.00
2022-09-22T09:14:24.227Z,2240.00
2022-09-22T09:15:24.220Z,2236.00
2022-09-22T09:16:24.242Z,2236.00
2022-09-22T09:17:24.223Z,2236.00
2022-09-22T09:18:24.193Z,2236.00
2022-09-22T09:19:24.181Z,2236.00
2022-09-22T09:20:24.175Z,2232.00
2022-09-22T09:21:24.194Z,2232.00
2022-09-22T09:22:24.184Z,2232.00
2022-09-22T09:23:24.667Z,2232.00
2022-09-22T09:25:27.900Z,2232.00
2022-09-22T09:26:24.156Z,2232.00
2022-09-22T09:27:24.167Z,2236.00
2022-09-22T09:28:27.722Z,2232.00
2022-09-22T09:29:25.118Z,2232.00
2022-09-22T09:30:24.109Z,2236.00
2022-09-22T09:31:24.139Z,2232.00
2022-09-22T09:32:24.127Z,2232.00
2022-09-22T09:33:24.092Z,2228.00
2022-09-22T09:34:24.102Z,2232.00
2022-09-22T09:35:24.080Z,2232.00
2022-09-22T09:36:24.064Z,2232.00
2022-09-22T09:37:24.103Z,2232.00
2022-09-22T09:38:24.055Z,2232.00
2022-09-22T09:39:24.046Z,2232.00
2022-09-22T09:40:24.092Z,2240.00
2022-09-22T09:41:24.030Z,2248.00
2022-09-22T09:42:24.048Z,2248.00
2022-09-22T09:43:24.013Z,2248.00
2022-09-22T09:44:24.023Z,2248.00
2022-09-22T09:45:24.025Z,2244.00
2022-09-22T09:46:57.542Z,2244.00
2022-09-22T09:47:23.982Z,2244.00
2022-09-22T09:48:23.976Z,2244.00
2022-09-22T09:49:23.980Z,2244.00
2022-09-22T09:50:23.989Z,2252.00
2022-09-22T09:51:23.977Z,2260.00
2022-09-22T09:52:23.943Z,2260.00
2022-09-22T09:53:23.942Z,2272.00
2022-09-22T09:54:23.927Z,2272.00
2022-09-22T09:55:26.564Z,2272.00
2022-09-22T09:56:24.942Z,2276.00
2022-09-22T09:57:31.095Z,2280.00
2022-09-22T09:58:25.897Z,2284.00
2022-09-22T09:59:23.898Z,2288.00
2022-09-22T10:00:23.889Z,2216.00
2022-09-22T10:01:23.933Z,2212.00
2022-09-22T10:02:23.872Z,2228.00
2022-09-22T10:03:23.907Z,2240.00
2022-09-22T10:04:23.859Z,2236.00
2022-09-22T10:05:23.848Z,2232.00
2022-09-22T10:06:23.870Z,2240.00
2022-09-22T10:07:23.868Z,2244.00
2022-09-22T10:08:23.855Z,2252.00
2022-09-22T10:09:23.863Z,2272.00
2022-09-22T10:10:23.821Z,2284.00
2022-09-22T10:11:23.832Z,2280.00
2022-09-22T10:12:23.803Z,2292.00
2022-09-22T10:13:23.850Z,2288.00
2022-09-22T10:14:23.972Z,2296.00
2022-09-22T10:15:23.771Z,2304.00
2022-09-22T10:16:23.852Z,2304.00
2022-09-22T10:17:23.790Z,2312.00
2022-09-22T10:18:23.764Z,2332.00
2022-09-22T10:19:24.734Z,2408.00
2022-09-22T10:20:23.914Z,2416.00
2022-09-22T10:21:23.744Z,2416.00
2022-09-22T10:22:23.718Z,2416.00
2022-09-22T10:23:23.703Z,2400.00
2022-09-22T10:24:23.699Z,2384.00
2022-09-22T10:25:23.694Z,2364.00
2022-09-22T10:26:23.686Z,2352.00
2022-09-22T10:27:23.703Z,2344.00
2022-09-22T10:28:23.674Z,2344.00
2022-09-22T10:29:23.660Z,2344.00
2022-09-22T10:30:23.661Z,2340.00
2022-09-22T10:31:23.699Z,2328.00
2022-09-22T10:32:23.671Z,2316.00
2022-09-22T10:33:23.628Z,2316.00
2022-09-22T10:34:23.624Z,2324.00
2022-09-22T10:35:23.618Z,2312.00
2022-09-22T10:36:23.609Z,2332.00
2022-09-22T10:37:23.625Z,2344.00
2022-09-22T10:38:23.603Z,2364.00
2022-09-22T10:39:23.587Z,2372.00
2022-09-22T10:40:23.630Z,2372.00
2022-09-22T10:41:24.607Z,2392.00
2022-09-22T10:42:23.567Z,2404.00
2022-09-22T10:43:23.555Z,2408.00
2022-09-22T10:44:41.904Z,2392.00
2022-09-22T10:45:25.540Z,2392.00
2022-09-22T10:46:23.600Z,2412.00
2022-09-22T10:47:26.949Z,2416.00
2022-09-22T10:48:24.520Z,1360.00
2022-09-22T10:49:23.508Z,1484.00
2022-09-22T10:50:23.506Z,2392.00
2022-09-22T10:51:23.518Z,1528.00
2022-09-22T10:52:23.494Z,2408.00
2022-09-22T10:53:23.478Z,2452.00
2022-09-22T10:54:23.466Z,2492.00
2022-09-22T10:55:23.462Z,2536.00
2022-09-22T10:56:23.480Z,2560.00
2022-09-22T10:57:24.447Z,2556.00
2022-09-22T10:58:23.449Z,2520.00
2022-09-22T10:59:23.429Z,2496.00
2022-09-22T11:00:23.420Z,2540.00
2022-09-22T11:01:23.485Z,2532.00
2022-09-22T11:02:23.401Z,2508.00
2022-09-22T11:03:23.394Z,2508.00
2022-09-22T11:04:23.473Z,2520.00
2022-09-22T11:05:23.384Z,2500.00
2022-09-22T11:06:23.396Z,2508.00
2022-09-22T11:07:23.367Z,2524.00
2022-09-22T11:08:23.356Z,2548.00
2022-09-22T11:09:23.346Z,2588.00
2022-09-22T11:10:24.485Z,2580.00
2022-09-22T11:11:23.366Z,2548.00
2022-09-22T11:12:23.335Z,2496.00
2022-09-22T11:13:23.324Z,2452.00
2022-09-22T11:14:23.315Z,2424.00
2022-09-22T11:15:23.343Z,2408.00
2022-09-22T11:16:23.320Z,2416.00
2022-09-22T11:17:23.287Z,2396.00
2022-09-22T11:18:23.282Z,2412.00
2022-09-22T11:19:23.281Z,2400.00
2022-09-22T11:20:23.323Z,1188.00
2022-09-22T11:21:23.303Z,2356.00
2022-09-22T11:22:23.251Z,2416.00
2022-09-22T11:23:23.248Z,2444.00
2022-09-22T11:24:23.239Z,2444.00
2022-09-22T11:25:23.243Z,1144.00
2022-09-22T11:26:23.252Z,1136.00
2022-09-22T11:27:23.208Z,1188.00
2022-09-22T11:28:23.264Z,1256.00
2022-09-22T11:29:23.200Z,1256.00
2022-09-22T11:30:23.358Z,1292.00
2022-09-22T11:31:23.204Z,1908.00
2022-09-22T11:32:23.173Z,1292.00
2022-09-22T11:33:23.157Z,1228.00
2022-09-22T11:34:23.157Z,2300.00
2022-09-22T11:35:23.148Z,2512.00
2022-09-22T11:36:23.141Z,2500.00
2022-09-22T11:37:23.154Z,2480.00
2022-09-22T11:38:23.129Z,2492.00
2022-09-22T11:39:23.114Z,2488.00
2022-09-22T11:40:23.288Z,2488.00
2022-09-22T11:41:23.097Z,2476.00
2022-09-22T11:42:23.114Z,2456.00
2022-09-22T11:43:23.085Z,2436.00
2022-09-22T11:44:23.160Z,2444.00
2022-09-22T11:45:24.071Z,2428.00
2022-09-22T11:46:23.101Z,2176.00
2022-09-22T11:47:23.077Z,1252.00
2022-09-22T11:48:23.047Z,2088.00
2022-09-22T11:49:23.060Z,2364.00
2022-09-22T11:50:23.022Z,2000.00
2022-09-22T11:51:23.021Z,2376.00
2022-09-22T11:52:23.042Z,1864.00
2022-09-22T11:53:23.012Z,1592.00
2022-09-22T11:54:22.993Z,1316.00
2022-09-22T11:55:22.989Z,1592.00
2022-09-22T11:56:22.979Z,2408.00
2022-09-22T11:57:22.999Z,2384.00
2022-09-22T11:58:22.970Z,2164.00
2022-09-22T11:59:22.959Z,1232.00
2022-09-22T12:00:22.959Z,1080.00
2022-09-22T12:01:22.947Z,1088.00
2022-09-22T12:02:23.000Z,1100.00
2022-09-22T12:03:23.023Z,1160.00
2022-09-22T12:04:22.921Z,1104.00
2022-09-22T12:05:22.920Z,1104.00
2022-09-22T12:06:22.906Z,1096.00
2022-09-22T12:07:22.922Z,1088.00
2022-09-22T12:08:22.893Z,1084.00
2022-09-22T12:09:22.884Z,1088.00
2022-09-22T12:10:22.882Z,1132.00
2022-09-22T12:11:22.893Z,1204.00
2022-09-22T12:12:22.862Z,1532.00
2022-09-22T12:13:22.853Z,2044.00
2022-09-22T12:14:22.855Z,1800.00
2022-09-22T12:15:22.848Z,1124.00
2022-09-22T12:16:22.862Z,1108.00
2022-09-22T12:17:23.645Z,1136.00
2022-09-22T12:18:23.821Z,1156.00
2022-09-22T12:19:22.821Z,1180.00
2022-09-22T12:20:22.807Z,1176.00
2022-09-22T12:21:22.826Z,1176.00
2022-09-22T12:22:22.819Z,1184.00
2022-09-22T12:23:22.781Z,1256.00
2022-09-22T12:24:22.779Z,1268.00
2022-09-22T12:25:37.693Z,1288.00
2022-09-22T12:26:24.788Z,1860.00
2022-09-22T12:27:22.750Z,1208.00
2022-09-22T12:28:22.774Z,1172.00
2022-09-22T12:29:22.753Z,1192.00
2022-09-22T12:30:22.749Z,2160.00
2022-09-22T12:31:22.752Z,2384.00
2022-09-22T12:32:22.721Z,1320.00
2022-09-22T12:33:22.781Z,1176.00
2022-09-22T12:34:22.694Z,1172.00
2022-09-22T12:35:23.754Z,1248.00
2022-09-22T12:36:22.704Z,2132.00
2022-09-22T12:37:22.674Z,2256.00
2022-09-22T12:38:22.699Z,2264.00
2022-09-22T12:39:22.659Z,2264.00